sensor_id;sensor_type;location;lat;lon;timestamp;P1;durP1;ratioP1;P2;durP2;ratioP2
67514;SDS011;60646;55.802;37.032;2023-04-16T00:01:22;23.17;;;6.40;;
67514;SDS011;60646;55.802;37.032;2023-04-16T00:03:48;20.80;;;5.80;;
67514;SDS011;60646;55.802;37.032;2023-04-16T00:06:13;17.48;;;6.03;;
67514;SDS011;60646;55.802;37.032;2023-04-16T00:08:39;15.98;;;5.85;;
67514;SDS011;60646;55.802;37.032;2023-04-16T00:11:05;17.77;;;5.85;;
67514;SDS011;60646;55.802;37.032;2023-04-16T00:13:31;18.27;;;5.70;;
67514;SDS011;60646;55.802;37.032;2023-04-16T00:15:57;17.85;;;5.80;;
67514;SDS011;60646;55.802;37.032;2023-04-16T00:18:24;21.63;;;5.97;;
67514;SDS011;60646;55.802;37.032;2023-04-16T00:20:50;16.17;;;5.55;;
67514;SDS011;60646;55.802;37.032;2023-04-16T00:23:16;20.52;;;6.68;;
67514;SDS011;60646;55.802;37.032;2023-04-16T00:25:42;15.30;;;4.93;;
67514;SDS011;60646;55.802;37.032;2023-04-16T00:28:08;14.00;;;5.07;;
67514;SDS011;60646;55.802;37.032;2023-04-16T00:30:34;10.98;;;4.63;;
67514;SDS011;60646;55.802;37.032;2023-04-16T00:33:01;17.52;;;5.20;;
67514;SDS011;60646;55.802;37.032;2023-04-16T00:35:27;20.10;;;5.22;;
67514;SDS011;60646;55.802;37.032;2023-04-16T00:37:53;16.42;;;5.22;;
67514;SDS011;60646;55.802;37.032;2023-04-16T00:40:19;20.73;;;6.20;;
67514;SDS011;60646;55.802;37.032;2023-04-16T00:42:45;17.30;;;6.38;;
67514;SDS011;60646;55.802;37.032;2023-04-16T00:45:11;16.77;;;6.70;;
67514;SDS011;60646;55.802;37.032;2023-04-16T00:47:38;15.35;;;5.13;;
67514;SDS011;60646;55.802;37.032;2023-04-16T00:50:04;20.13;;;6.10;;
67514;SDS011;60646;55.802;37.032;2023-04-16T00:52:31;15.48;;;5.38;;
67514;SDS011;60646;55.802;37.032;2023-04-16T00:54:57;16.70;;;5.43;;
67514;SDS011;60646;55.802;37.032;2023-04-16T00:57:24;18.67;;;6.13;;
67514;SDS011;60646;55.802;37.032;2023-04-16T00:59:50;17.05;;;6.47;;
67514;SDS011;60646;55.802;37.032;2023-04-16T01:02:16;14.10;;;5.00;;
67514;SDS011;60646;55.802;37.032;2023-04-16T01:04:42;10.32;;;4.75;;
67514;SDS011;60646;55.802;37.032;2023-04-16T01:07:07;27.08;;;5.80;;
67514;SDS011;60646;55.802;37.032;2023-04-16T01:09:33;12.10;;;4.75;;
67514;SDS011;60646;55.802;37.032;2023-04-16T01:12:02;11.70;;;4.20;;
67514;SDS011;60646;55.802;37.032;2023-04-16T01:14:27;11.80;;;4.32;;
67514;SDS011;60646;55.802;37.032;2023-04-16T01:16:53;14.98;;;4.95;;
67514;SDS011;60646;55.802;37.032;2023-04-16T01:19:19;17.90;;;6.30;;
67514;SDS011;60646;55.802;37.032;2023-04-16T01:21:45;26.98;;;6.10;;
67514;SDS011;60646;55.802;37.032;2023-04-16T01:24:11;16.35;;;4.85;;
67514;SDS011;60646;55.802;37.032;2023-04-16T01:26:38;23.05;;;4.88;;
67514;SDS011;60646;55.802;37.032;2023-04-16T01:29:04;31.50;;;5.60;;
67514;SDS011;60646;55.802;37.032;2023-04-16T01:31:31;25.25;;;5.18;;
67514;SDS011;60646;55.802;37.032;2023-04-16T01:34:14;23.67;;;5.45;;
67514;SDS011;60646;55.802;37.032;2023-04-16T01:36:40;26.30;;;5.07;;
67514;SDS011;60646;55.802;37.032;2023-04-16T01:39:06;18.63;;;6.10;;
67514;SDS011;60646;55.802;37.032;2023-04-16T01:41:35;25.25;;;6.05;;
67514;SDS011;60646;55.802;37.032;2023-04-16T01:44:01;24.55;;;5.75;;
67514;SDS011;60646;55.802;37.032;2023-04-16T01:46:28;17.00;;;4.93;;
67514;SDS011;60646;55.802;37.032;2023-04-16T01:48:56;19.08;;;5.43;;
67514;SDS011;60646;55.802;37.032;2023-04-16T01:51:22;19.75;;;5.85;;
67514;SDS011;60646;55.802;37.032;2023-04-16T01:53:49;24.92;;;5.35;;
67514;SDS011;60646;55.802;37.032;2023-04-16T01:56:15;15.57;;;5.50;;
67514;SDS011;60646;55.802;37.032;2023-04-16T01:58:41;16.65;;;6.07;;
67514;SDS011;60646;55.802;37.032;2023-04-16T02:01:08;15.90;;;5.35;;
67514;SDS011;60646;55.802;37.032;2023-04-16T02:03:35;20.65;;;5.25;;
67514;SDS011;60646;55.802;37.032;2023-04-16T02:06:02;19.73;;;5.40;;
67514;SDS011;60646;55.802;37.032;2023-04-16T02:08:28;14.65;;;4.30;;
67514;SDS011;60646;55.802;37.032;2023-04-16T02:10:54;11.88;;;4.47;;
67514;SDS011;60646;55.802;37.032;2023-04-16T02:13:22;9.95;;;3.97;;
67514;SDS011;60646;55.802;37.032;2023-04-16T02:15:50;18.02;;;5.60;;
67514;SDS011;60646;55.802;37.032;2023-04-16T02:18:54;12.77;;;4.45;;
67514;SDS011;60646;55.802;37.032;2023-04-16T02:21:22;9.00;;;4.03;;
67514;SDS011;60646;55.802;37.032;2023-04-16T02:23:48;14.13;;;5.07;;
67514;SDS011;60646;55.802;37.032;2023-04-16T02:26:17;8.10;;;3.58;;
67514;SDS011;60646;55.802;37.032;2023-04-16T02:28:44;11.82;;;4.20;;
67514;SDS011;60646;55.802;37.032;2023-04-16T02:31:11;10.38;;;3.92;;
67514;SDS011;60646;55.802;37.032;2023-04-16T02:33:42;9.55;;;4.20;;
67514;SDS011;60646;55.802;37.032;2023-04-16T02:36:11;9.95;;;3.83;;
67514;SDS011;60646;55.802;37.032;2023-04-16T02:38:37;8.52;;;4.20;;
67514;SDS011;60646;55.802;37.032;2023-04-16T02:41:03;13.20;;;4.47;;
67514;SDS011;60646;55.802;37.032;2023-04-16T02:43:29;10.60;;;3.90;;
67514;SDS011;60646;55.802;37.032;2023-04-16T02:45:58;10.73;;;3.95;;
67514;SDS011;60646;55.802;37.032;2023-04-16T02:48:24;11.23;;;4.05;;
67514;SDS011;60646;55.802;37.032;2023-04-16T02:50:49;10.70;;;4.03;;
67514;SDS011;60646;55.802;37.032;2023-04-16T02:53:15;11.35;;;3.72;;
67514;SDS011;60646;55.802;37.032;2023-04-16T02:55:45;8.10;;;4.00;;
67514;SDS011;60646;55.802;37.032;2023-04-16T02:58:14;8.07;;;3.83;;
67514;SDS011;60646;55.802;37.032;2023-04-16T03:00:40;9.75;;;3.60;;
67514;SDS011;60646;55.802;37.032;2023-04-16T03:03:06;6.32;;;3.03;;
67514;SDS011;60646;55.802;37.032;2023-04-16T03:05:32;8.18;;;3.20;;
67514;SDS011;60646;55.802;37.032;2023-04-16T03:07:57;9.13;;;3.38;;
67514;SDS011;60646;55.802;37.032;2023-04-16T03:10:23;7.90;;;3.50;;
67514;SDS011;60646;55.802;37.032;2023-04-16T03:12:49;6.88;;;3.58;;
67514;SDS011;60646;55.802;37.032;2023-04-16T03:15:15;9.30;;;3.45;;
67514;SDS011;60646;55.802;37.032;2023-04-16T03:17:41;10.98;;;3.42;;
67514;SDS011;60646;55.802;37.032;2023-04-16T03:20:09;6.63;;;3.08;;
67514;SDS011;60646;55.802;37.032;2023-04-16T03:22:34;7.68;;;3.30;;
67514;SDS011;60646;55.802;37.032;2023-04-16T03:25:00;11.75;;;3.22;;
67514;SDS011;60646;55.802;37.032;2023-04-16T03:27:31;11.98;;;3.67;;
67514;SDS011;60646;55.802;37.032;2023-04-16T03:29:57;6.95;;;3.05;;
67514;SDS011;60646;55.802;37.032;2023-04-16T03:32:23;8.88;;;3.80;;
67514;SDS011;60646;55.802;37.032;2023-04-16T03:34:49;8.68;;;3.28;;
67514;SDS011;60646;55.802;37.032;2023-04-16T03:37:15;7.80;;;3.40;;
67514;SDS011;60646;55.802;37.032;2023-04-16T03:39:41;9.00;;;3.45;;
67514;SDS011;60646;55.802;37.032;2023-04-16T03:42:13;7.22;;;3.70;;
67514;SDS011;60646;55.802;37.032;2023-04-16T03:44:39;8.77;;;3.58;;
67514;SDS011;60646;55.802;37.032;2023-04-16T03:47:05;11.00;;;3.83;;
67514;SDS011;60646;55.802;37.032;2023-04-16T03:49:31;11.60;;;3.90;;
67514;SDS011;60646;55.802;37.032;2023-04-16T03:51:57;12.07;;;3.97;;
67514;SDS011;60646;55.802;37.032;2023-04-16T03:54:24;9.95;;;3.80;;
67514;SDS011;60646;55.802;37.032;2023-04-16T03:57:01;7.97;;;3.50;;
67514;SDS011;60646;55.802;37.032;2023-04-16T03:59:27;5.60;;;3.00;;
67514;SDS011;60646;55.802;37.032;2023-04-16T04:01:53;7.90;;;3.13;;
67514;SDS011;60646;55.802;37.032;2023-04-16T04:04:18;4.88;;;2.55;;
67514;SDS011;60646;55.802;37.032;2023-04-16T04:06:45;8.30;;;3.00;;
67514;SDS011;60646;55.802;37.032;2023-04-16T04:09:12;5.45;;;2.72;;
67514;SDS011;60646;55.802;37.032;2023-04-16T04:11:38;6.32;;;2.30;;
67514;SDS011;60646;55.802;37.032;2023-04-16T04:14:04;5.28;;;2.00;;
67514;SDS011;60646;55.802;37.032;2023-04-16T04:16:30;4.70;;;1.67;;
67514;SDS011;60646;55.802;37.032;2023-04-16T04:18:57;5.65;;;2.30;;
67514;SDS011;60646;55.802;37.032;2023-04-16T04:21:49;4.82;;;1.95;;
67514;SDS011;60646;55.802;37.032;2023-04-16T04:24:16;4.32;;;1.92;;
67514;SDS011;60646;55.802;37.032;2023-04-16T04:26:44;2.72;;;1.58;;
67514;SDS011;60646;55.802;37.032;2023-04-16T04:29:12;3.47;;;1.60;;
67514;SDS011;60646;55.802;37.032;2023-04-16T04:31:37;6.35;;;1.70;;
67514;SDS011;60646;55.802;37.032;2023-04-16T04:34:03;4.32;;;1.80;;
67514;SDS011;60646;55.802;37.032;2023-04-16T04:36:29;6.45;;;1.70;;
67514;SDS011;60646;55.802;37.032;2023-04-16T04:38:55;4.20;;;1.98;;
67514;SDS011;60646;55.802;37.032;2023-04-16T04:41:21;3.22;;;1.73;;
67514;SDS011;60646;55.802;37.032;2023-04-16T04:43:47;3.47;;;1.70;;
67514;SDS011;60646;55.802;37.032;2023-04-16T04:46:13;5.40;;;1.52;;
67514;SDS011;60646;55.802;37.032;2023-04-16T04:48:39;7.18;;;1.85;;
67514;SDS011;60646;55.802;37.032;2023-04-16T04:51:05;3.30;;;1.92;;
67514;SDS011;60646;55.802;37.032;2023-04-16T04:53:31;4.28;;;2.03;;
67514;SDS011;60646;55.802;37.032;2023-04-16T04:56:22;5.50;;;1.65;;
67514;SDS011;60646;55.802;37.032;2023-04-16T04:58:51;3.80;;;1.80;;
67514;SDS011;60646;55.802;37.032;2023-04-16T05:01:18;2.80;;;1.63;;
67514;SDS011;60646;55.802;37.032;2023-04-16T05:03:44;2.88;;;1.90;;
67514;SDS011;60646;55.802;37.032;2023-04-16T05:06:35;4.63;;;1.98;;
67514;SDS011;60646;55.802;37.032;2023-04-16T05:09:05;8.30;;;2.00;;
67514;SDS011;60646;55.802;37.032;2023-04-16T05:11:32;3.45;;;1.95;;
67514;SDS011;60646;55.802;37.032;2023-04-16T05:14:00;4.70;;;2.17;;
67514;SDS011;60646;55.802;37.032;2023-04-16T05:16:25;3.85;;;2.15;;
67514;SDS011;60646;55.802;37.032;2023-04-16T05:18:51;4.43;;;2.17;;
67514;SDS011;60646;55.802;37.032;2023-04-16T05:21:17;4.45;;;2.22;;
67514;SDS011;60646;55.802;37.032;2023-04-16T05:23:43;5.88;;;2.03;;
67514;SDS011;60646;55.802;37.032;2023-04-16T05:26:08;5.38;;;2.08;;
67514;SDS011;60646;55.802;37.032;2023-04-16T05:28:34;3.70;;;2.00;;
67514;SDS011;60646;55.802;37.032;2023-04-16T05:31:00;6.05;;;2.22;;
67514;SDS011;60646;55.802;37.032;2023-04-16T05:33:47;6.53;;;2.42;;
67514;SDS011;60646;55.802;37.032;2023-04-16T05:36:13;5.57;;;1.98;;
67514;SDS011;60646;55.802;37.032;2023-04-16T05:38:43;6.18;;;2.25;;
67514;SDS011;60646;55.802;37.032;2023-04-16T05:41:08;5.40;;;2.70;;
67514;SDS011;60646;55.802;37.032;2023-04-16T05:43:34;4.38;;;2.10;;
67514;SDS011;60646;55.802;37.032;2023-04-16T05:46:00;4.75;;;2.03;;
67514;SDS011;60646;55.802;37.032;2023-04-16T05:48:29;4.20;;;2.22;;
67514;SDS011;60646;55.802;37.032;2023-04-16T05:50:55;4.75;;;1.98;;
67514;SDS011;60646;55.802;37.032;2023-04-16T05:53:21;3.17;;;1.88;;
67514;SDS011;60646;55.802;37.032;2023-04-16T05:55:48;4.88;;;1.90;;
67514;SDS011;60646;55.802;37.032;2023-04-16T05:58:13;2.78;;;1.58;;
67514;SDS011;60646;55.802;37.032;2023-04-16T06:00:42;5.22;;;1.80;;
67514;SDS011;60646;55.802;37.032;2023-04-16T06:03:08;5.18;;;2.28;;
67514;SDS011;60646;55.802;37.032;2023-04-16T06:05:36;3.55;;;1.80;;
67514;SDS011;60646;55.802;37.032;2023-04-16T06:08:06;3.30;;;1.88;;
67514;SDS011;60646;55.802;37.032;2023-04-16T06:10:32;4.13;;;1.80;;
67514;SDS011;60646;55.802;37.032;2023-04-16T06:13:00;3.67;;;1.85;;
67514;SDS011;60646;55.802;37.032;2023-04-16T06:15:26;5.40;;;1.77;;
67514;SDS011;60646;55.802;37.032;2023-04-16T06:17:57;3.53;;;2.00;;
67514;SDS011;60646;55.802;37.032;2023-04-16T06:20:23;4.55;;;1.67;;
67514;SDS011;60646;55.802;37.032;2023-04-16T06:22:52;4.13;;;2.03;;
67514;SDS011;60646;55.802;37.032;2023-04-16T06:25:17;3.72;;;1.70;;
67514;SDS011;60646;55.802;37.032;2023-04-16T06:27:43;2.70;;;1.50;;
67514;SDS011;60646;55.802;37.032;2023-04-16T06:30:15;2.45;;;1.60;;
67514;SDS011;60646;55.802;37.032;2023-04-16T06:32:41;3.20;;;1.70;;
67514;SDS011;60646;55.802;37.032;2023-04-16T06:35:08;4.70;;;1.80;;
67514;SDS011;60646;55.802;37.032;2023-04-16T06:37:34;6.15;;;1.80;;
67514;SDS011;60646;55.802;37.032;2023-04-16T06:40:03;3.50;;;1.67;;
67514;SDS011;60646;55.802;37.032;2023-04-16T06:42:30;5.15;;;1.80;;
67514;SDS011;60646;55.802;37.032;2023-04-16T06:44:55;3.25;;;1.60;;
67514;SDS011;60646;55.802;37.032;2023-04-16T06:47:22;4.97;;;1.67;;
67514;SDS011;60646;55.802;37.032;2023-04-16T06:49:48;4.22;;;1.77;;
67514;SDS011;60646;55.802;37.032;2023-04-16T06:52:13;3.25;;;1.42;;
67514;SDS011;60646;55.802;37.032;2023-04-16T06:54:39;3.20;;;1.42;;
67514;SDS011;60646;55.802;37.032;2023-04-16T06:57:05;2.95;;;1.83;;
67514;SDS011;60646;55.802;37.032;2023-04-16T06:59:31;4.45;;;1.75;;
67514;SDS011;60646;55.802;37.032;2023-04-16T07:01:57;3.10;;;1.63;;
67514;SDS011;60646;55.802;37.032;2023-04-16T07:04:23;2.28;;;1.63;;
67514;SDS011;60646;55.802;37.032;2023-04-16T07:06:49;3.25;;;1.50;;
67514;SDS011;60646;55.802;37.032;2023-04-16T07:09:15;3.15;;;1.42;;
67514;SDS011;60646;55.802;37.032;2023-04-16T07:14:51;4.05;;;1.48;;
67514;SDS011;60646;55.802;37.032;2023-04-16T07:17:17;3.10;;;1.88;;
67514;SDS011;60646;55.802;37.032;2023-04-16T07:19:43;2.13;;;1.20;;
67514;SDS011;60646;55.802;37.032;2023-04-16T07:22:09;2.58;;;1.20;;
67514;SDS011;60646;55.802;37.032;2023-04-16T07:24:35;3.05;;;1.40;;
67514;SDS011;60646;55.802;37.032;2023-04-16T07:27:01;3.65;;;1.30;;
67514;SDS011;60646;55.802;37.032;2023-04-16T07:29:27;2.53;;;1.30;;
67514;SDS011;60646;55.802;37.032;2023-04-16T07:31:56;3.70;;;1.35;;
67514;SDS011;60646;55.802;37.032;2023-04-16T07:34:22;2.78;;;1.40;;
67514;SDS011;60646;55.802;37.032;2023-04-16T07:37:14;2.05;;;1.30;;
67514;SDS011;60646;55.802;37.032;2023-04-16T07:39:43;3.53;;;1.27;;
67514;SDS011;60646;55.802;37.032;2023-04-16T07:42:09;2.15;;;1.25;;
67514;SDS011;60646;55.802;37.032;2023-04-16T07:44:35;4.78;;;1.50;;
67514;SDS011;60646;55.802;37.032;2023-04-16T07:47:01;2.70;;;1.20;;
67514;SDS011;60646;55.802;37.032;2023-04-16T07:49:27;2.17;;;1.30;;
67514;SDS011;60646;55.802;37.032;2023-04-16T07:51:53;2.42;;;1.20;;
67514;SDS011;60646;55.802;37.032;2023-04-16T07:54:19;3.53;;;1.48;;
67514;SDS011;60646;55.802;37.032;2023-04-16T07:56:45;3.33;;;1.38;;
67514;SDS011;60646;55.802;37.032;2023-04-16T07:59:11;3.13;;;1.58;;
67514;SDS011;60646;55.802;37.032;2023-04-16T08:01:37;6.10;;;1.50;;
67514;SDS011;60646;55.802;37.032;2023-04-16T08:04:03;3.97;;;1.55;;
67514;SDS011;60646;55.802;37.032;2023-04-16T08:06:30;2.65;;;1.45;;
67514;SDS011;60646;55.802;37.032;2023-04-16T08:08:56;2.97;;;1.35;;
67514;SDS011;60646;55.802;37.032;2023-04-16T08:11:22;2.05;;;1.20;;
67514;SDS011;60646;55.802;37.032;2023-04-16T08:13:52;3.50;;;1.30;;
67514;SDS011;60646;55.802;37.032;2023-04-16T08:16:18;2.67;;;1.20;;
67514;SDS011;60646;55.802;37.032;2023-04-16T08:18:44;2.20;;;1.30;;
67514;SDS011;60646;55.802;37.032;2023-04-16T08:21:13;3.10;;;1.30;;
67514;SDS011;60646;55.802;37.032;2023-04-16T08:24:12;2.78;;;1.27;;
67514;SDS011;60646;55.802;37.032;2023-04-16T08:26:38;2.40;;;1.35;;
67514;SDS011;60646;55.802;37.032;2023-04-16T08:31:55;1.88;;;1.13;;
67514;SDS011;60646;55.802;37.032;2023-04-16T08:34:21;2.60;;;1.23;;
67514;SDS011;60646;55.802;37.032;2023-04-16T08:39:37;1.63;;;1.30;;
67514;SDS011;60646;55.802;37.032;2023-04-16T08:42:04;2.25;;;1.45;;
67514;SDS011;60646;55.802;37.032;2023-04-16T08:44:30;3.00;;;1.63;;
67514;SDS011;60646;55.802;37.032;2023-04-16T08:46:58;2.45;;;1.73;;
67514;SDS011;60646;55.802;37.032;2023-04-16T08:49:25;3.92;;;2.05;;
67514;SDS011;60646;55.802;37.032;2023-04-16T08:51:55;3.15;;;1.40;;
67514;SDS011;60646;55.802;37.032;2023-04-16T08:59:30;2.33;;;1.45;;
67514;SDS011;60646;55.802;37.032;2023-04-16T09:01:57;2.25;;;1.50;;
67514;SDS011;60646;55.802;37.032;2023-04-16T09:04:26;2.60;;;1.38;;
67514;SDS011;60646;55.802;37.032;2023-04-16T09:06:54;2.10;;;1.45;;
67514;SDS011;60646;55.802;37.032;2023-04-16T09:09:21;3.38;;;1.20;;
67514;SDS011;60646;55.802;37.032;2023-04-16T09:11:54;3.33;;;1.65;;
67514;SDS011;60646;55.802;37.032;2023-04-16T09:14:20;4.43;;;1.80;;
67514;SDS011;60646;55.802;37.032;2023-04-16T09:16:46;3.85;;;1.60;;
67514;SDS011;60646;55.802;37.032;2023-04-16T09:19:15;2.13;;;1.65;;
67514;SDS011;60646;55.802;37.032;2023-04-16T09:21:41;3.33;;;1.60;;
67514;SDS011;60646;55.802;37.032;2023-04-16T09:24:11;3.58;;;1.77;;
67514;SDS011;60646;55.802;37.032;2023-04-16T09:27:02;3.20;;;1.45;;
67514;SDS011;60646;55.802;37.032;2023-04-16T09:29:35;2.85;;;2.13;;
67514;SDS011;60646;55.802;37.032;2023-04-16T09:32:03;3.75;;;1.88;;
67514;SDS011;60646;55.802;37.032;2023-04-16T09:34:31;3.85;;;2.13;;
67514;SDS011;60646;55.802;37.032;2023-04-16T09:37:14;2.95;;;1.95;;
67514;SDS011;60646;55.802;37.032;2023-04-16T09:39:43;3.72;;;1.70;;
67514;SDS011;60646;55.802;37.032;2023-04-16T09:42:41;2.72;;;1.77;;
67514;SDS011;60646;55.802;37.032;2023-04-16T09:48:12;2.85;;;1.55;;
67514;SDS011;60646;55.802;37.032;2023-04-16T09:50:38;2.72;;;1.50;;
67514;SDS011;60646;55.802;37.032;2023-04-16T09:53:04;3.35;;;1.90;;
67514;SDS011;60646;55.802;37.032;2023-04-16T09:55:30;4.60;;;1.58;;
67514;SDS011;60646;55.802;37.032;2023-04-16T09:57:58;3.53;;;1.70;;
67514;SDS011;60646;55.802;37.032;2023-04-16T10:03:31;4.80;;;1.80;;
67514;SDS011;60646;55.802;37.032;2023-04-16T10:05:59;4.63;;;2.00;;
67514;SDS011;60646;55.802;37.032;2023-04-16T10:08:26;3.63;;;1.60;;
67514;SDS011;60646;55.802;37.032;2023-04-16T10:10:52;3.08;;;1.65;;
67514;SDS011;60646;55.802;37.032;2023-04-16T10:13:20;3.28;;;2.10;;
67514;SDS011;60646;55.802;37.032;2023-04-16T10:15:46;3.90;;;1.67;;
67514;SDS011;60646;55.802;37.032;2023-04-16T10:18:12;3.97;;;1.42;;
67514;SDS011;60646;55.802;37.032;2023-04-16T10:20:39;2.63;;;1.30;;
67514;SDS011;60646;55.802;37.032;2023-04-16T10:23:08;4.60;;;2.00;;
67514;SDS011;60646;55.802;37.032;2023-04-16T10:25:35;3.05;;;1.80;;
67514;SDS011;60646;55.802;37.032;2023-04-16T10:28:27;3.08;;;1.85;;
67514;SDS011;60646;55.802;37.032;2023-04-16T10:31:01;2.72;;;1.40;;
67514;SDS011;60646;55.802;37.032;2023-04-16T10:33:32;2.57;;;1.60;;
67514;SDS011;60646;55.802;37.032;2023-04-16T10:38:46;3.85;;;1.65;;
67514;SDS011;60646;55.802;37.032;2023-04-16T10:41:14;3.78;;;1.80;;
67514;SDS011;60646;55.802;37.032;2023-04-16T10:43:42;6.68;;;1.80;;
67514;SDS011;60646;55.802;37.032;2023-04-16T10:46:31;3.20;;;1.95;;
67514;SDS011;60646;55.802;37.032;2023-04-16T10:49:02;3.17;;;2.00;;
67514;SDS011;60646;55.802;37.032;2023-04-16T10:51:37;3.00;;;1.85;;
67514;SDS011;60646;55.802;37.032;2023-04-16T10:56:32;3.92;;;2.20;;
67514;SDS011;60646;55.802;37.032;2023-04-16T10:58:59;4.38;;;2.50;;
67514;SDS011;60646;55.802;37.032;2023-04-16T11:01:29;4.80;;;3.20;;
67514;SDS011;60646;55.802;37.032;2023-04-16T11:03:57;4.47;;;2.60;;
67514;SDS011;60646;55.802;37.032;2023-04-16T11:06:27;3.88;;;2.63;;
67514;SDS011;60646;55.802;37.032;2023-04-16T11:08:53;5.50;;;2.28;;
67514;SDS011;60646;55.802;37.032;2023-04-16T11:14:11;6.32;;;2.85;;
67514;SDS011;60646;55.802;37.032;2023-04-16T11:16:39;5.97;;;2.63;;
67514;SDS011;60646;55.802;37.032;2023-04-16T11:19:05;3.90;;;2.30;;
67514;SDS011;60646;55.802;37.032;2023-04-16T11:21:31;3.65;;;1.95;;
67514;SDS011;60646;55.802;37.032;2023-04-16T11:23:57;4.82;;;1.90;;
67514;SDS011;60646;55.802;37.032;2023-04-16T11:26:23;2.80;;;1.67;;
67514;SDS011;60646;55.802;37.032;2023-04-16T11:28:51;5.00;;;2.25;;
67514;SDS011;60646;55.802;37.032;2023-04-16T11:32:02;4.82;;;2.90;;
67514;SDS011;60646;55.802;37.032;2023-04-16T11:34:28;4.72;;;2.45;;
67514;SDS011;60646;55.802;37.032;2023-04-16T11:36:55;3.95;;;1.70;;
67514;SDS011;60646;55.802;37.032;2023-04-16T11:39:21;3.10;;;1.77;;
67514;SDS011;60646;55.802;37.032;2023-04-16T11:41:49;3.95;;;2.40;;
67514;SDS011;60646;55.802;37.032;2023-04-16T11:44:20;2.97;;;1.73;;
67514;SDS011;60646;55.802;37.032;2023-04-16T11:46:51;5.05;;;2.70;;
67514;SDS011;60646;55.802;37.032;2023-04-16T11:49:30;4.15;;;2.10;;
67514;SDS011;60646;55.802;37.032;2023-04-16T11:51:56;3.95;;;1.77;;
67514;SDS011;60646;55.802;37.032;2023-04-16T11:54:23;6.10;;;2.08;;
67514;SDS011;60646;55.802;37.032;2023-04-16T11:56:50;3.95;;;1.80;;
67514;SDS011;60646;55.802;37.032;2023-04-16T12:01:46;3.30;;;1.75;;
67514;SDS011;60646;55.802;37.032;2023-04-16T12:04:25;2.10;;;1.60;;
67514;SDS011;60646;55.802;37.032;2023-04-16T12:09:34;3.90;;;1.67;;
67514;SDS011;60646;55.802;37.032;2023-04-16T12:12:01;4.60;;;2.10;;
67514;SDS011;60646;55.802;37.032;2023-04-16T12:14:28;4.55;;;2.13;;
67514;SDS011;60646;55.802;37.032;2023-04-16T12:16:54;14.10;;;2.92;;
67514;SDS011;60646;55.802;37.032;2023-04-16T12:19:21;6.40;;;2.45;;
67514;SDS011;60646;55.802;37.032;2023-04-16T12:21:47;3.85;;;2.40;;
67514;SDS011;60646;55.802;37.032;2023-04-16T12:24:15;3.58;;;2.30;;
67514;SDS011;60646;55.802;37.032;2023-04-16T12:26:45;4.20;;;2.25;;
67514;SDS011;60646;55.802;37.032;2023-04-16T12:29:20;3.35;;;2.17;;
67514;SDS011;60646;55.802;37.032;2023-04-16T12:31:47;3.78;;;2.35;;
67514;SDS011;60646;55.802;37.032;2023-04-16T12:37:16;4.00;;;2.42;;
67514;SDS011;60646;55.802;37.032;2023-04-16T12:39:43;4.78;;;2.40;;
67514;SDS011;60646;55.802;37.032;2023-04-16T12:42:08;4.38;;;2.75;;
67514;SDS011;60646;55.802;37.032;2023-04-16T12:44:36;5.13;;;2.47;;
67514;SDS011;60646;55.802;37.032;2023-04-16T12:47:05;3.90;;;2.75;;
67514;SDS011;60646;55.802;37.032;2023-04-16T12:49:30;4.95;;;2.47;;
67514;SDS011;60646;55.802;37.032;2023-04-16T12:51:57;5.75;;;3.17;;
67514;SDS011;60646;55.802;37.032;2023-04-16T12:55:09;5.47;;;2.97;;
67514;SDS011;60646;55.802;37.032;2023-04-16T12:57:59;4.05;;;2.47;;
67514;SDS011;60646;55.802;37.032;2023-04-16T13:00:25;4.70;;;2.53;;
67514;SDS011;60646;55.802;37.032;2023-04-16T13:02:51;4.85;;;2.70;;
67514;SDS011;60646;55.802;37.032;2023-04-16T13:05:17;4.38;;;2.78;;
67514;SDS011;60646;55.802;37.032;2023-04-16T13:07:43;3.90;;;2.45;;
67514;SDS011;60646;55.802;37.032;2023-04-16T13:10:09;4.38;;;2.70;;
67514;SDS011;60646;55.802;37.032;2023-04-16T13:12:36;4.43;;;2.30;;
67514;SDS011;60646;55.802;37.032;2023-04-16T13:15:02;3.92;;;2.47;;
67514;SDS011;60646;55.802;37.032;2023-04-16T13:20:23;3.72;;;2.67;;
67514;SDS011;60646;55.802;37.032;2023-04-16T13:22:49;5.57;;;2.70;;
67514;SDS011;60646;55.802;37.032;2023-04-16T13:25:15;4.15;;;2.40;;
67514;SDS011;60646;55.802;37.032;2023-04-16T13:28:06;3.63;;;2.33;;
67514;SDS011;60646;55.802;37.032;2023-04-16T13:30:32;5.15;;;2.67;;
67514;SDS011;60646;55.802;37.032;2023-04-16T13:32:59;3.58;;;2.20;;
67514;SDS011;60646;55.802;37.032;2023-04-16T13:35:53;3.70;;;2.45;;
67514;SDS011;60646;55.802;37.032;2023-04-16T13:38:18;4.47;;;2.75;;
67514;SDS011;60646;55.802;37.032;2023-04-16T13:40:44;3.60;;;2.33;;
67514;SDS011;60646;55.802;37.032;2023-04-16T13:43:11;6.38;;;2.65;;
67514;SDS011;60646;55.802;37.032;2023-04-16T13:45:38;4.50;;;2.55;;
67514;SDS011;60646;55.802;37.032;2023-04-16T13:48:04;3.50;;;2.33;;
67514;SDS011;60646;55.802;37.032;2023-04-16T13:50:30;3.40;;;2.38;;
67514;SDS011;60646;55.802;37.032;2023-04-16T13:52:55;3.90;;;2.08;;
67514;SDS011;60646;55.802;37.032;2023-04-16T13:55:21;7.22;;;2.22;;
67514;SDS011;60646;55.802;37.032;2023-04-16T13:58:12;4.57;;;2.03;;
67514;SDS011;60646;55.802;37.032;2023-04-16T14:00:38;3.53;;;2.15;;
67514;SDS011;60646;55.802;37.032;2023-04-16T14:03:04;4.13;;;1.73;;
67514;SDS011;60646;55.802;37.032;2023-04-16T14:05:55;6.38;;;2.28;;
67514;SDS011;60646;55.802;37.032;2023-04-16T14:08:20;3.08;;;2.30;;
67514;SDS011;60646;55.802;37.032;2023-04-16T14:10:47;3.65;;;2.25;;
67514;SDS011;60646;55.802;37.032;2023-04-16T14:13:12;3.42;;;2.22;;
67514;SDS011;60646;55.802;37.032;2023-04-16T14:15:38;2.90;;;1.90;;
67514;SDS011;60646;55.802;37.032;2023-04-16T14:18:04;3.80;;;2.25;;
67514;SDS011;60646;55.802;37.032;2023-04-16T14:20:30;5.57;;;1.80;;
67514;SDS011;60646;55.802;37.032;2023-04-16T14:22:57;3.88;;;2.40;;
67514;SDS011;60646;55.802;37.032;2023-04-16T14:25:23;4.07;;;2.17;;
67514;SDS011;60646;55.802;37.032;2023-04-16T14:27:49;2.80;;;2.05;;
67514;SDS011;60646;55.802;37.032;2023-04-16T14:30:15;3.92;;;2.42;;
67514;SDS011;60646;55.802;37.032;2023-04-16T14:32:41;4.50;;;2.45;;
67514;SDS011;60646;55.802;37.032;2023-04-16T14:35:07;3.13;;;1.80;;
67514;SDS011;60646;55.802;37.032;2023-04-16T14:37:33;2.92;;;2.05;;
67514;SDS011;60646;55.802;37.032;2023-04-16T14:40:00;4.45;;;2.03;;
67514;SDS011;60646;55.802;37.032;2023-04-16T14:42:29;2.60;;;1.77;;
67514;SDS011;60646;55.802;37.032;2023-04-16T14:44:55;2.85;;;2.08;;
67514;SDS011;60646;55.802;37.032;2023-04-16T14:47:21;4.32;;;2.08;;
67514;SDS011;60646;55.802;37.032;2023-04-16T14:49:47;3.00;;;1.90;;
67514;SDS011;60646;55.802;37.032;2023-04-16T14:52:13;3.13;;;2.00;;
67514;SDS011;60646;55.802;37.032;2023-04-16T14:54:39;3.25;;;1.90;;
67514;SDS011;60646;55.802;37.032;2023-04-16T14:57:04;4.65;;;1.95;;
67514;SDS011;60646;55.802;37.032;2023-04-16T14:59:30;3.05;;;2.22;;
67514;SDS011;60646;55.802;37.032;2023-04-16T15:01:57;3.65;;;2.10;;
67514;SDS011;60646;55.802;37.032;2023-04-16T15:04:23;2.75;;;2.00;;
67514;SDS011;60646;55.802;37.032;2023-04-16T15:06:50;3.80;;;2.28;;
67514;SDS011;60646;55.802;37.032;2023-04-16T15:09:16;3.45;;;2.05;;
67514;SDS011;60646;55.802;37.032;2023-04-16T15:11:41;2.50;;;1.85;;
67514;SDS011;60646;55.802;37.032;2023-04-16T15:14:07;3.75;;;2.28;;
67514;SDS011;60646;55.802;37.032;2023-04-16T15:16:33;3.47;;;2.42;;